sensor_id;sensor_type;location;lat;lon;timestamp;pressure;altitude;pressure_sealevel;temperature;humidity
45467;BME280;31212;49.734;8.490;2022-10-16T00:00:28;100345.47;;;15.80;100.00
45467;BME280;31212;49.734;8.490;2022-10-16T00:02:55;100334.16;;;15.78;100.00
45467;BME280;31212;49.734;8.490;2022-10-16T00:05:21;100344.56;;;15.83;100.00
45467;BME280;31212;49.734;8.490;2022-10-16T00:07:49;100340.31;;;15.75;100.00
45467;BME280;31212;49.734;8.490;2022-10-16T00:10:16;100354.19;;;15.82;100.00
45467;BME280;31212;49.734;8.490;2022-10-16T00:12:43;100362.06;;;15.77;100.00
45467;BME280;31212;49.734;8.490;2022-10-16T00:15:09;100366.53;;;15.72;100.00
45467;BME280;31212;49.734;8.490;2022-10-16T00:17:36;100345.53;;;15.77;100.00
45467;BME280;31212;49.734;8.490;2022-10-16T00:20:03;100334.28;;;15.72;100.00
45467;BME280;31212;49.734;8.490;2022-10-16T00:22:30;100339.63;;;15.66;100.00
45467;BME280;31212;49.734;8.490;2022-10-16T00:24:58;100344.94;;;15.61;100.00
45467;BME280;31212;49.734;8.490;2022-10-16T00:27:24;100351.03;;;15.63;100.00
45467;BME280;31212;49.734;8.490;2022-10-16T00:29:51;100351.03;;;15.61;100.00
45467;BME280;31212;49.734;8.490;2022-10-16T00:32:19;100355.50;;;15.55;100.00
45467;BME280;31212;49.734;8.490;2022-10-16T00:34:46;100356.31;;;15.58;100.00
45467;BME280;31212;49.734;8.490;2022-10-16T00:37:13;100353.56;;;15.66;100.00
45467;BME280;31212;49.734;8.490;2022-10-16T00:39:39;100347.50;;;15.64;99.63
45467;BME280;31212;49.734;8.490;2022-10-16T00:42:09;100351.03;;;15.61;99.35
45467;BME280;31212;49.734;8.490;2022-10-16T00:44:47;100352.72;;;15.66;98.97
45467;BME280;31212;49.734;8.490;2022-10-16T00:47:19;100334.44;;;15.62;98.30
45467;BME280;31212;49.734;8.490;2022-10-16T00:49:48;100340.47;;;15.68;97.60
45467;BME280;31212;49.734;8.490;2022-10-16T00:52:16;100346.53;;;15.70;97.63
45467;BME280;31212;49.734;8.490;2022-10-16T00:54:44;100354.44;;;15.67;97.28
45467;BME280;31212;49.734;8.490;2022-10-16T00:57:13;100345.66;;;15.69;96.84
45467;BME280;31212;49.734;8.490;2022-10-16T00:59:41;100340.50;;;15.66;97.39
45467;BME280;31212;49.734;8.490;2022-10-16T01:02:10;100344.81;;;15.69;97.10
45467;BME280;31212;49.734;8.490;2022-10-16T01:04:39;100349.97;;;15.72;96.98
45467;BME280;31212;49.734;8.490;2022-10-16T01:07:16;100338.03;;;15.57;97.92
45467;BME280;31212;49.734;8.490;2022-10-16T01:10:03;100349.44;;;15.54;98.43
45467;BME280;31212;49.734;8.490;2022-10-16T01:12:39;100364.41;;;15.46;99.19
45467;BME280;31212;49.734;8.490;2022-10-16T01:15:12;100366.88;;;15.54;100.00
45467;BME280;31212;49.734;8.490;2022-10-16T01:17:49;100366.78;;;15.58;100.00
45467;BME280;31212;49.734;8.490;2022-10-16T01:20:26;100370.16;;;15.65;100.00
45467;BME280;31212;49.734;8.490;2022-10-16T01:23:06;100367.56;;;15.63;100.00
45467;BME280;31212;49.734;8.490;2022-10-16T01:25:45;100365.81;;;15.64;100.00
45467;BME280;31212;49.734;8.490;2022-10-16T01:28:17;100363.91;;;15.72;100.00
45467;BME280;31212;49.734;8.490;2022-10-16T01:30:46;100360.31;;;15.81;100.00
45467;BME280;31212;49.734;8.490;2022-10-16T01:33:16;100359.41;;;15.79;100.00
45467;BME280;31212;49.734;8.490;2022-10-16T01:35:47;100361.19;;;15.78;100.00
45467;BME280;31212;49.734;8.490;2022-10-16T01:38:19;100369.06;;;15.77;100.00
45467;BME280;31212;49.734;8.490;2022-10-16T01:40:50;100370.78;;;15.79;100.00
45467;BME280;31212;49.734;8.490;2022-10-16T01:43:22;100383.94;;;15.76;100.00
45467;BME280;31212;49.734;8.490;2022-10-16T01:45:51;100391.13;;;15.63;100.00
45467;BME280;31212;49.734;8.490;2022-10-16T01:48:19;100397.94;;;15.72;100.00
45467;BME280;31212;49.734;8.490;2022-10-16T01:50:53;100399.63;;;15.75;100.00
45467;BME280;31212;49.734;8.490;2022-10-16T01:53:22;100403.09;;;15.77;100.00
45467;BME280;31212;49.734;8.490;2022-10-16T01:55:52;100397.81;;;15.81;100.00
45467;BME280;31212;49.734;8.490;2022-10-16T01:58:21;100377.94;;;15.70;100.00
45467;BME280;31212;49.734;8.490;2022-10-16T02:00:51;100378.72;;;15.73;100.00
45467;BME280;31212;49.734;8.490;2022-10-16T02:03:22;100387.63;;;15.64;100.00
45467;BME280;31212;49.734;8.490;2022-10-16T02:05:51;100401.47;;;15.71;100.00
45467;BME280;31212;49.734;8.490;2022-10-16T02:08:19;100402.31;;;15.72;100.00
45467;BME280;31212;49.734;8.490;2022-10-16T02:10:46;100397.88;;;15.77;100.00
45467;BME280;31212;49.734;8.490;2022-10-16T02:13:16;100390.84;;;15.79;100.00
45467;BME280;31212;49.734;8.490;2022-10-16T02:15:45;100390.28;;;15.63;100.00
45467;BME280;31212;49.734;8.490;2022-10-16T02:18:12;100378.91;;;15.66;100.00
45467;BME280;31212;49.734;8.490;2022-10-16T02:20:43;100370.03;;;15.73;100.00
45467;BME280;31212;49.734;8.490;2022-10-16T02:23:18;100375.53;;;15.57;100.00
45467;BME280;31212;49.734;8.490;2022-10-16T02:25:47;100386.81;;;15.61;100.00
45467;BME280;31212;49.734;8.490;2022-10-16T02:28:17;100393.59;;;15.73;100.00
45467;BME280;31212;49.734;8.490;2022-10-16T02:30:50;100386.69;;;15.69;100.00
45467;BME280;31212;49.734;8.490;2022-10-16T02:33:19;100399.56;;;15.81;100.00
45467;BME280;31212;49.734;8.490;2022-10-16T02:35:48;100391.69;;;15.83;100.00
45467;BME280;31212;49.734;8.490;2022-10-16T02:38:17;100394.44;;;15.73;100.00
45467;BME280;31212;49.734;8.490;2022-10-16T02:40:44;100394.41;;;15.75;100.00
45467;BME280;31212;49.734;8.490;2022-10-16T02:43:11;100397.94;;;15.74;100.00
45467;BME280;31212;49.734;8.490;2022-10-16T02:45:38;100404.97;;;15.70;100.00
45467;BME280;31212;49.734;8.490;2022-10-16T02:48:07;100402.25;;;15.75;100.00
45467;BME280;31212;49.734;8.490;2022-10-16T02:50:33;100398.88;;;15.68;100.00
45467;BME280;31212;49.734;8.490;2022-10-16T02:53:00;100407.69;;;15.64;100.00
45467;BME280;31212;49.734;8.490;2022-10-16T02:55:27;100408.44;;;15.71;100.00
45467;BME280;31212;49.734;8.490;2022-10-16T02:57:54;100411.81;;;15.80;100.00
45467;BME280;31212;49.734;8.490;2022-10-16T03:00:21;100415.41;;;15.72;100.00
45467;BME280;31212;49.734;8.490;2022-10-16T03:02:47;100425.94;;;15.69;100.00
45467;BME280;31212;49.734;8.490;2022-10-16T03:05:16;100405.94;;;15.64;100.00
45467;BME280;31212;49.734;8.490;2022-10-16T03:07:42;100409.38;;;15.67;100.00
45467;BME280;31212;49.734;8.490;2022-10-16T03:10:09;100411.03;;;15.72;100.00
45467;BME280;31212;49.734;8.490;2022-10-16T03:12:35;100421.34;;;15.81;100.00
45467;BME280;31212;49.734;8.490;2022-10-16T03:15:03;100419.75;;;15.73;100.00
45467;BME280;31212;49.734;8.490;2022-10-16T03:17:32;100409.31;;;15.71;100.00
45467;BME280;31212;49.734;8.490;2022-10-16T03:19:58;100407.53;;;15.73;100.00
45467;BME280;31212;49.734;8.490;2022-10-16T03:22:26;100412.72;;;15.76;100.00
45467;BME280;31212;49.734;8.490;2022-10-16T03:24:53;100416.25;;;15.74;100.00
45467;BME280;31212;49.734;8.490;2022-10-16T03:27:19;100413.63;;;15.72;100.00
45467;BME280;31212;49.734;8.490;2022-10-16T03:29:46;100419.72;;;15.74;100.00
45467;BME280;31212;49.734;8.490;2022-10-16T03:32:12;100424.03;;;15.77;100.00
45467;BME280;31212;49.734;8.490;2022-10-16T03:34:39;100423.13;;;15.79;100.00
45467;BME280;31212;49.734;8.490;2022-10-16T03:37:06;100407.41;;;15.79;100.00
45467;BME280;31212;49.734;8.490;2022-10-16T03:39:34;100425.81;;;15.75;100.00
45467;BME280;31212;49.734;8.490;2022-10-16T03:42:00;100437.97;;;15.77;100.00
45467;BME280;31212;49.734;8.490;2022-10-16T03:44:27;100433.66;;;15.76;100.00
45467;BME280;31212;49.734;8.490;2022-10-16T03:46:53;100441.44;;;15.79;100.00
45467;BME280;31212;49.734;8.490;2022-10-16T03:49:20;100428.38;;;15.81;100.00
45467;BME280;31212;49.734;8.490;2022-10-16T03:51:46;100427.50;;;15.77;100.00
45467;BME280;31212;49.734;8.490;2022-10-16T03:54:13;100428.09;;;15.95;100.00
45467;BME280;31212;49.734;8.490;2022-10-16T03:56:41;100426.41;;;15.92;100.00
45467;BME280;31212;49.734;8.490;2022-10-16T03:59:07;100436.81;;;15.97;100.00
45467;BME280;31212;49.734;8.490;2022-10-16T04:01:34;100441.41;;;15.83;100.00
45467;BME280;31212;49.734;8.490;2022-10-16T04:04:00;100427.50;;;15.80;100.00
45467;BME280;31212;49.734;8.490;2022-10-16T04:06:27;100418.69;;;15.86;100.00
45467;BME280;31212;49.734;8.490;2022-10-16T04:08:53;100425.66;;;15.86;100.00
45467;BME280;31212;49.734;8.490;2022-10-16T04:11:20;100414.28;;;15.87;100.00
45467;BME280;31212;49.734;8.490;2022-10-16T04:13:48;100420.31;;;15.92;100.00
45467;BME280;31212;49.734;8.490;2022-10-16T04:16:14;100411.91;;;15.73;100.00
45467;BME280;31212;49.734;8.490;2022-10-16T04:18:41;100425.06;;;15.68;100.00
45467;BME280;31212;49.734;8.490;2022-10-16T04:21:08;100437.25;;;15.69;100.00
45467;BME280;31212;49.734;8.490;2022-10-16T04:23:34;100444.25;;;15.69;100.00
45467;BME280;31212;49.734;8.490;2022-10-16T04:26:01;100446.97;;;15.62;100.00
45467;BME280;31212;49.734;8.490;2022-10-16T04:28:27;100434.75;;;15.61;100.00
45467;BME280;31212;49.734;8.490;2022-10-16T04:30:56;100429.38;;;15.71;100.00
45467;BME280;31212;49.734;8.490;2022-10-16T04:33:22;100447.84;;;15.61;100.00
45467;BME280;31212;49.734;8.490;2022-10-16T04:35:56;100454.03;;;15.57;100.00
45467;BME280;31212;49.734;8.490;2022-10-16T04:38:22;100454.78;;;15.66;100.00
45467;BME280;31212;49.734;8.490;2022-10-16T04:40:49;100453.16;;;15.58;100.00
45467;BME280;31212;49.734;8.490;2022-10-16T04:43:15;100450.66;;;15.52;100.00
45467;BME280;31212;49.734;8.490;2022-10-16T04:45:42;100454.88;;;15.59;100.00
45467;BME280;31212;49.734;8.490;2022-10-16T04:48:10;100435.75;;;15.56;100.00
45467;BME280;31212;49.734;8.490;2022-10-16T04:50:36;100429.69;;;15.54;100.00
45467;BME280;31212;49.734;8.490;2022-10-16T04:53:06;100440.19;;;15.52;100.00
45467;BME280;31212;49.734;8.490;2022-10-16T04:55:32;100441.03;;;15.53;100.00
45467;BME280;31212;49.734;8.490;2022-10-16T04:57:59;100435.94;;;15.43;100.00
45467;BME280;31212;49.734;8.490;2022-10-16T05:00:26;100432.38;;;15.49;100.00
45467;BME280;31212;49.734;8.490;2022-10-16T05:02:53;100428.16;;;15.40;100.00
45467;BME280;31212;49.734;8.490;2022-10-16T05:05:21;100433.09;;;15.57;100.00
45467;BME280;31212;49.734;8.490;2022-10-16T05:07:48;100435.91;;;15.45;100.00
45467;BME280;31212;49.734;8.490;2022-10-16T05:10:15;100439.50;;;15.39;100.00
45467;BME280;31212;49.734;8.490;2022-10-16T05:12:42;100433.50;;;15.33;100.00
45467;BME280;31212;49.734;8.490;2022-10-16T05:15:09;100434.97;;;15.49;100.00
45467;BME280;31212;49.734;8.490;2022-10-16T05:17:36;100438.41;;;15.53;100.00
45467;BME280;31212;49.734;8.490;2022-10-16T05:20:04;100442.91;;;15.44;100.00
45467;BME280;31212;49.734;8.490;2022-10-16T05:22:32;100433.41;;;15.40;100.00
45467;BME280;31212;49.734;8.490;2022-10-16T05:24:59;100445.66;;;15.37;100.00
45467;BME280;31212;49.734;8.490;2022-10-16T05:27:25;100445.59;;;15.41;100.00
45467;BME280;31212;49.734;8.490;2022-10-16T05:29:52;100447.34;;;15.39;100.00
45467;BME280;31212;49.734;8.490;2022-10-16T05:32:18;100452.50;;;15.44;100.00
45467;BME280;31212;49.734;8.490;2022-10-16T05:34:45;100456.06;;;15.41;100.00
45467;BME280;31212;49.734;8.490;2022-10-16T05:37:12;100449.22;;;15.33;100.00
45467;BME280;31212;49.734;8.490;2022-10-16T05:39:40;100466.69;;;15.30;100.00
45467;BME280;31212;49.734;8.490;2022-10-16T05:42:07;100476.47;;;15.18;100.00
45467;BME280;31212;49.734;8.490;2022-10-16T05:44:33;100472.09;;;15.20;100.00
45467;BME280;31212;49.734;8.490;2022-10-16T05:47:00;100472.69;;;15.36;100.00
45467;BME280;31212;49.734;8.490;2022-10-16T05:49:27;100474.59;;;15.26;100.00
45467;BME280;31212;49.734;8.490;2022-10-16T05:51:53;100473.63;;;15.31;100.00
45467;BME280;31212;49.734;8.490;2022-10-16T05:54:23;100477.19;;;15.27;100.00
45467;BME280;31212;49.734;8.490;2022-10-16T05:56:50;100484.19;;;15.27;100.00
45467;BME280;31212;49.734;8.490;2022-10-16T05:59:17;100493.56;;;15.40;100.00
45467;BME280;31212;49.734;8.490;2022-10-16T06:01:43;100497.97;;;15.37;100.00
45467;BME280;31212;49.734;8.490;2022-10-16T06:04:10;100501.44;;;15.39;100.00
45467;BME280;31212;49.734;8.490;2022-10-16T06:06:36;100513.72;;;15.34;100.00
45467;BME280;31212;49.734;8.490;2022-10-16T06:09:03;100511.88;;;15.40;100.00
45467;BME280;31212;49.734;8.490;2022-10-16T06:11:31;100499.63;;;15.42;100.00
45467;BME280;31212;49.734;8.490;2022-10-16T06:14:01;100497.03;;;15.41;100.00
45467;BME280;31212;49.734;8.490;2022-10-16T06:16:32;100503.91;;;15.48;100.00
45467;BME280;31212;49.734;8.490;2022-10-16T06:18:59;100512.50;;;15.55;100.00
45467;BME280;31212;49.734;8.490;2022-10-16T06:21:27;100505.47;;;15.58;100.00
45467;BME280;31212;49.734;8.490;2022-10-16T06:23:54;100498.50;;;15.59;100.00
45467;BME280;31212;49.734;8.490;2022-10-16T06:26:23;100487.16;;;15.58;100.00
45467;BME280;31212;49.734;8.490;2022-10-16T06:28:51;100492.34;;;15.61;100.00
45467;BME280;31212;49.734;8.490;2022-10-16T06:31:18;100493.09;;;15.68;100.00
45467;BME280;31212;49.734;8.490;2022-10-16T06:33:49;100500.16;;;15.64;100.00
45467;BME280;31212;49.734;8.490;2022-10-16T06:36:17;100504.53;;;15.62;100.00
45467;BME280;31212;49.734;8.490;2022-10-16T06:38:44;100499.25;;;15.67;100.00
45467;BME280;31212;49.734;8.490;2022-10-16T06:41:14;100494.75;;;15.75;100.00
45467;BME280;31212;49.734;8.490;2022-10-16T06:43:41;100499.97;;;15.75;100.00
45467;BME280;31212;49.734;8.490;2022-10-16T06:46:10;100506.00;;;15.79;100.00
45467;BME280;31212;49.734;8.490;2022-10-16T06:48:38;100518.22;;;15.81;100.00
45467;BME280;31212;49.734;8.490;2022-10-16T06:51:08;100527.75;;;15.87;100.00
45467;BME280;31212;49.734;8.490;2022-10-16T06:53:36;100525.09;;;15.89;100.00
45467;BME280;31212;49.734;8.490;2022-10-16T06:56:08;100522.28;;;16.00;100.00
45467;BME280;31212;49.734;8.490;2022-10-16T06:58:35;100518.69;;;16.05;100.00
45467;BME280;31212;49.734;8.490;2022-10-16T07:01:02;100516.03;;;16.07;100.00
45467;BME280;31212;49.734;8.490;2022-10-16T07:03:28;100516.72;;;16.17;100.00
45467;BME280;31212;49.734;8.490;2022-10-16T07:05:56;100528.03;;;16.20;100.00
45467;BME280;31212;49.734;8.490;2022-10-16T07:08:23;100519.31;;;16.20;100.00
45467;BME280;31212;49.734;8.490;2022-10-16T07:10:58;100523.53;;;16.27;99.77
45467;BME280;31212;49.734;8.490;2022-10-16T07:13:24;100527.94;;;16.25;99.92
45467;BME280;31212;49.734;8.490;2022-10-16T07:15:51;100539.22;;;16.28;99.66
45467;BME280;31212;49.734;8.490;2022-10-16T07:18:18;100543.59;;;16.29;99.23
45467;BME280;31212;49.734;8.490;2022-10-16T07:20:44;100546.41;;;16.19;99.71
45467;BME280;31212;49.734;8.490;2022-10-16T07:23:12;100557.59;;;16.27;99.33
45467;BME280;31212;49.734;8.490;2022-10-16T07:25:39;100556.75;;;16.25;99.44
45467;BME280;31212;49.734;8.490;2022-10-16T07:28:05;100568.78;;;16.35;99.08
45467;BME280;31212;49.734;8.490;2022-10-16T07:30:34;100559.16;;;16.37;99.09
45467;BME280;31212;49.734;8.490;2022-10-16T07:33:01;100562.59;;;16.39;99.25
45467;BME280;31212;49.734;8.490;2022-10-16T07:35:28;100566.78;;;16.50;98.96
45467;BME280;31212;49.734;8.490;2022-10-16T07:37:54;100567.94;;;16.35;98.69
45467;BME280;31212;49.734;8.490;2022-10-16T07:40:22;100580.97;;;16.38;99.14
45467;BME280;31212;49.734;8.490;2022-10-16T07:42:48;100581.91;;;16.35;99.48
45467;BME280;31212;49.734;8.490;2022-10-16T07:45:15;100580.31;;;16.26;99.93
45467;BME280;31212;49.734;8.490;2022-10-16T07:47:42;100582.06;;;16.26;100.00
45467;BME280;31212;49.734;8.490;2022-10-16T07:50:08;100594.13;;;16.36;100.00
45467;BME280;31212;49.734;8.490;2022-10-16T07:52:35;100591.34;;;16.45;100.00
45467;BME280;31212;49.734;8.490;2022-10-16T07:55:02;100602.66;;;16.46;99.89
45467;BME280;31212;49.734;8.490;2022-10-16T07:57:30;100603.47;;;16.50;99.78
45467;BME280;31212;49.734;8.490;2022-10-16T07:59:56;100606.06;;;16.51;99.48
45467;BME280;31212;49.734;8.490;2022-10-16T08:02:23;100597.16;;;16.61;99.33
45467;BME280;31212;49.734;8.490;2022-10-16T08:04:49;100599.84;;;16.57;99.77
45467;BME280;31212;49.734;8.490;2022-10-16T08:07:16;100597.91;;;16.67;99.49
45467;BME280;31212;49.734;8.490;2022-10-16T08:09:42;100602.41;;;16.61;99.15
45467;BME280;31212;49.734;8.490;2022-10-16T08:12:09;100602.47;;;16.57;98.97
45467;BME280;31212;49.734;8.490;2022-10-16T08:14:37;100616.44;;;16.57;98.95
45467;BME280;31212;49.734;8.490;2022-10-16T08:17:04;100611.31;;;16.51;98.83
45467;BME280;31212;49.734;8.490;2022-10-16T08:19:30;100621.66;;;16.59;98.47
45467;BME280;31212;49.734;8.490;2022-10-16T08:21:59;100625.28;;;16.52;98.33
45467;BME280;31212;49.734;8.490;2022-10-16T08:24:26;100644.81;;;16.34;98.81
45467;BME280;31212;49.734;8.490;2022-10-16T08:26:56;100650.22;;;16.23;99.48
45467;BME280;31212;49.734;8.490;2022-10-16T08:29:23;100670.34;;;16.19;100.00
45467;BME280;31212;49.734;8.490;2022-10-16T08:31:54;100677.34;;;16.20;100.00
45467;BME280;31212;49.734;8.490;2022-10-16T08:34:22;100702.66;;;16.21;100.00
45467;BME280;31212;49.734;8.490;2022-10-16T08:36:53;100699.16;;;16.22;100.00
45467;BME280;31212;49.734;8.490;2022-10-16T08:39:21;100693.13;;;16.16;100.00
45467;BME280;31212;49.734;8.490;2022-10-16T08:42:08;100697.44;;;16.18;100.00
45467;BME280;31212;49.734;8.490;2022-10-16T08:47:49;100696.91;;;15.96;100.00
45467;BME280;31212;49.734;8.490;2022-10-16T08:50:23;100704.81;;;15.93;100.00
45467;BME280;31212;49.734;8.490;2022-10-16T08:52:53;100693.44;;;15.95;100.00
45467;BME280;31212;49.734;8.490;2022-10-16T08:55:31;100705.63;;;15.96;100.00
45467;BME280;31212;49.734;8.490;2022-10-16T08:58:00;100694.97;;;16.10;100.00
45467;BME280;31212;49.734;8.490;2022-10-16T09:00:29;100698.47;;;16.09;100.00
45467;BME280;31212;49.734;8.490;2022-10-16T09:03:05;100705.97;;;16.31;100.00
45467;BME280;31212;49.734;8.490;2022-10-16T09:05:49;100716.97;;;16.53;100.00
45467;BME280;31212;49.734;8.490;2022-10-16T09:08:28;100721.91;;;16.72;100.00
45467;BME280;31212;49.734;8.490;2022-10-16T09:11:01;100725.19;;;16.85;100.00
45467;BME280;31212;49.734;8.490;2022-10-16T09:13:33;100724.09;;;17.00;100.00
45467;BME280;31212;49.734;8.490;2022-10-16T09:16:12;100713.53;;;17.03;100.00
45467;BME280;31212;49.734;8.490;2022-10-16T09:18:49;100711.75;;;17.05;100.00
45467;BME280;31212;49.734;8.490;2022-10-16T09:21:21;100711.34;;;17.26;100.00
45467;BME280;31212;49.734;8.490;2022-10-16T09:23:50;100713.31;;;17.59;99.86
45467;BME280;31212;49.734;8.490;2022-10-16T09:26:18;100692.63;;;17.42;99.34
45467;BME280;31212;49.734;8.490;2022-10-16T09:28:47;100705.44;;;17.59;99.25
45467;BME280;31212;49.734;8.490;2022-10-16T09:31:18;100707.75;;;17.73;98.70
45467;BME280;31212;49.734;8.490;2022-10-16T09:33:52;100709.28;;;17.83;97.70
45467;BME280;31212;49.734;8.490;2022-10-16T09:36:26;100702.94;;;17.93;96.67
45467;BME280;31212;49.734;8.490;2022-10-16T09:39:05;100714.22;;;17.98;96.09
45467;BME280;31212;49.734;8.490;2022-10-16T09:41:34;100709.72;;;18.04;95.88
45467;BME280;31212;49.734;8.490;2022-10-16T09:44:04;100701.28;;;18.27;95.08
45467;BME280;31212;49.734;8.490;2022-10-16T09:46:34;100699.13;;;19.73;92.73
45467;BME280;31212;49.734;8.490;2022-10-16T09:49:17;100638.22;;;20.38;87.11
45467;BME280;31212;49.734;8.490;2022-10-16T09:51:45;100577.91;;;20.28;83.46
45467;BME280;31212;49.734;8.490;2022-10-16T09:54:17;100584.16;;;21.46;82.64
45467;BME280;31212;49.734;8.490;2022-10-16T09:56:44;100491.38;;;22.58;78.20
45467;BME280;31212;49.734;8.490;2022-10-16T09:59:16;100427.63;;;22.82;75.04
45467;BME280;31212;49.734;8.490;2022-10-16T10:01:47;100371.63;;;23.79;72.42
45467;BME280;31212;49.734;8.490;2022-10-16T10:04:17;100278.22;;;24.55;68.06
45467;BME280;31212;49.734;8.490;2022-10-16T10:06:47;100183.59;;;25.71;63.68
45467;BME280;31212;49.734;8.490;2022-10-16T10:09:18;100231.41;;;25.58;63.20
45467;BME280;31212;49.734;8.490;2022-10-16T10:11:54;100204.84;;;26.27;61.29
45467;BME280;31212;49.734;8.490;2022-10-16T10:14:25;100175.50;;;25.87;60.75
45467;BME280;31212;49.734;8.490;2022-10-16T10:17:01;100174.53;;;26.30;59.67
45467;BME280;31212;49.734;8.490;2022-10-16T10:19:37;100130.34;;;26.27;58.51
45467;BME280;31212;49.734;8.490;2022-10-16T10:22:16;100129.91;;;26.99;57.62
45467;BME280;31212;49.734;8.490;2022-10-16T10:24:44;100104.59;;;27.18;56.30
45467;BME280;31212;49.734;8.490;2022-10-16T10:27:16;100104.44;;;26.95;56.36
45467;BME280;31212;49.734;8.490;2022-10-16T10:29:48;100144.03;;;26.08;57.59
45467;BME280;31212;49.734;8.490;2022-10-16T10:32:27;100213.44;;;25.33;59.65
45467;BME280;31212;49.734;8.490;2022-10-16T10:35:14;100265.81;;;24.86;60.78
45467;BME280;31212;49.734;8.490;2022-10-16T10:38:00;100310.81;;;23.93;62.97
45467;BME280;31212;49.734;8.490;2022-10-16T10:40:40;100359.00;;;23.84;64.21
45467;BME280;31212;49.734;8.490;2022-10-16T10:43:21;100399.41;;;23.19;65.59
45467;BME280;31212;49.734;8.490;2022-10-16T10:46:02;100380.78;;;23.56;65.07
45467;BME280;31212;49.734;8.490;2022-10-16T10:48:51;100395.00;;;24.06;65.41
45467;BME280;31212;49.734;8.490;2022-10-16T10:51:30;100392.31;;;24.39;64.88
45467;BME280;31212;49.734;8.490;2022-10-16T10:54:07;100319.69;;;24.88;62.88
45467;BME280;31212;49.734;8.490;2022-10-16T10:56:47;100281.72;;;25.16;61.71
45467;BME280;31212;49.734;8.490;2022-10-16T10:59:49;100313.03;;;25.56;61.75
45467;BME280;31212;49.734;8.490;2022-10-16T11:02:24;100220.31;;;25.93;59.75
45467;BME280;31212;49.734;8.490;2022-10-16T11:05:07;100196.66;;;25.89;59.05
45467;BME280;31212;49.734;8.490;2022-10-16T11:07:47;100222.44;;;25.74;59.69
45467;BME280;31212;49.734;8.490;2022-10-16T11:10:25;100285.88;;;24.92;61.72
45467;BME280;31212;49.734;8.490;2022-10-16T11:12:58;100332.56;;;24.48;63.22
45467;BME280;31212;49.734;8.490;2022-10-16T11:15:27;100328.03;;;24.18;63.67
45467;BME280;31212;49.734;8.490;2022-10-16T11:18:02;100375.44;;;24.56;64.28
45467;BME280;31212;49.734;8.490;2022-10-16T11:20:34;100346.38;;;24.71;63.29
45467;BME280;31212;49.734;8.490;2022-10-16T11:23:10;100284.97;;;24.77;62.09
45467;BME280;31212;49.734;8.490;2022-10-16T11:25:43;100360.31;;;24.90;63.20
45467;BME280;31212;49.734;8.490;2022-10-16T11:28:14;100321.19;;;24.30;63.43
45467;BME280;31212;49.734;8.490;2022-10-16T11:30:46;100381.31;;;23.80;64.91
45467;BME280;31212;49.734;8.490;2022-10-16T11:33:25;100384.72;;;23.48;65.19
45467;BME280;31212;49.734;8.490;2022-10-16T11:36:02;100429.50;;;23.35;66.63
45467;BME280;31212;49.734;8.490;2022-10-16T11:38:38;100458.88;;;23.31;67.25
45467;BME280;31212;49.734;8.490;2022-10-16T11:41:17;100432.03;;;23.20;66.84
45467;BME280;31212;49.734;8.490;2022-10-16T11:43:55;100395.78;;;23.39;66.27
45467;BME280;31212;49.734;8.490;2022-10-16T11:46:26;100407.38;;;23.72;65.84
45467;BME280;31212;49.734;8.490;2022-10-16T11:49:00;100411.94;;;24.03;65.52
45467;BME280;31212;49.734;8.490;2022-10-16T11:51:35;100348.84;;;24.26;64.43
45467;BME280;31212;49.734;8.490;2022-10-16T11:54:10;100356.53;;;24.46;64.19
45467;BME280;31212;49.734;8.490;2022-10-16T11:56:48;100383.16;;;24.93;64.51
45467;BME280;31212;49.734;8.490;2022-10-16T11:59:21;100255.91;;;25.04;61.82
45467;BME280;31212;49.734;8.490;2022-10-16T12:01:53;100230.75;;;24.81;61.32
45467;BME280;31212;49.734;8.490;2022-10-16T12:04:26;100255.47;;;24.81;61.78
45467;BME280;31212;49.734;8.490;2022-10-16T12:07:02;100267.16;;;24.47;61.91
45467;BME280;31212;49.734;8.490;2022-10-16T12:09:36;100381.78;;;24.53;64.47
45467;BME280;31212;49.734;8.490;2022-10-16T12:12:04;100359.63;;;25.17;63.30
45467;BME280;31212;49.734;8.490;2022-10-16T12:14:37;100258.81;;;25.59;60.70
45467;BME280;31212;49.734;8.490;2022-10-16T12:17:24;100214.34;;;25.03;60.13
45467;BME280;31212;49.734;8.490;2022-10-16T12:20:18;100305.59;;;24.40;62.57
45467;BME280;31212;49.734;8.490;2022-10-16T12:22:51;100348.47;;;24.00;63.89
45467;BME280;31212;49.734;8.490;2022-10-16T12:25:27;100395.88;;;24.22;64.99
45467;BME280;31212;49.734;8.490;2022-10-16T12:28:04;100363.44;;;24.17;64.28
45467;BME280;31212;49.734;8.490;2022-10-16T12:30:34;100328.78;;;24.04;63.30
45467;BME280;31212;49.734;8.490;2022-10-16T12:33:04;100353.50;;;24.05;64.07
45467;BME280;31212;49.734;8.490;2022-10-16T12:35:35;100345.19;;;23.95;64.49
45467;BME280;31212;49.734;8.490;2022-10-16T12:38:16;100347.16;;;23.74;64.48
45467;BME280;31212;49.734;8.490;2022-10-16T12:40:46;100371.53;;;23.98;64.83
45467;BME280;31212;49.734;8.490;2022-10-16T12:43:41;100355.41;;;23.85;64.41
45467;BME280;31212;49.734;8.490;2022-10-16T12:49:19;100367.91;;;23.65;64.86
45467;BME280;31212;49.734;8.490;2022-10-16T12:51:47;100384.13;;;23.94;64.68
45467;BME280;31212;49.734;8.490;2022-10-16T12:54:17;100378.47;;;24.00;64.64
45467;BME280;31212;49.734;8.490;2022-10-16T12:56:57;100348.25;;;24.37;64.17
45467;BME280;31212;49.734;8.490;2022-10-16T12:59:34;100306.22;;;24.45;62.80
45467;BME280;31212;49.734;8.490;2022-10-16T13:02:41;100268.34;;;24.73;61.87
45467;BME280;31212;49.734;8.490;2022-10-16T13:05:22;100274.34;;;25.22;61.16